createdAt,value
2022-10-06T00:00:54.927Z,101329.25
2022-10-06T00:03:25.599Z,101342.84
2022-10-06T00:05:52.115Z,101336.13
2022-10-06T00:08:19.418Z,101365.00
2022-10-06T00:10:46.057Z,101369.19
2022-10-06T00:13:12.590Z,101374.59
2022-10-06T00:15:39.734Z,101382.34
2022-10-06T00:18:06.685Z,101399.88
2022-10-06T00:20:33.324Z,101406.00
2022-10-06T00:22:59.839Z,101424.00
2022-10-06T00:25:28.163Z,101439.75
2022-10-06T00:27:55.157Z,101452.72
2022-10-06T00:30:24.942Z,101447.84
2022-10-06T00:32:58.894Z,101451.66
2022-10-06T00:35:28.841Z,101435.03
2022-10-06T00:37:55.740Z,101428.19
2022-10-06T00:40:22.490Z,101434.50
2022-10-06T00:43:01.934Z,101434.22
2022-10-06T00:45:39.994Z,101437.25
2022-10-06T00:48:26.963Z,101438.06
2022-10-06T00:50:57.897Z,101442.97
2022-10-06T00:53:27.780Z,101442.97
2022-10-06T00:55:54.517Z,101438.34
2022-10-06T00:58:21.465Z,101444.34
2022-10-06T01:00:54.063Z,101454.16
2022-10-06T01:03:35.828Z,101453.63
2022-10-06T01:06:04.066Z,101456.09
2022-10-06T01:08:32.930Z,101463.47
2022-10-06T01:10:59.909Z,101481.47
2022-10-06T01:13:30.354Z,101468.09
2022-10-06T01:16:10.178Z,101487.19
2022-10-06T01:18:41.043Z,101487.47
2022-10-06T01:21:15.728Z,101483.13
2022-10-06T01:23:42.389Z,101489.38
2022-10-06T01:26:11.362Z,101492.38
2022-10-06T01:28:39.370Z,101489.91
2022-10-06T01:31:08.311Z,101503.03
2022-10-06T01:33:35.349Z,101500.03
2022-10-06T01:36:03.135Z,101505.75
2022-10-06T01:38:29.856Z,101509.03
2022-10-06T01:41:02.191Z,101498.66
2022-10-06T01:43:29.434Z,101500.03
2022-10-06T01:45:57.633Z,101512.88
2022-10-06T01:48:26.447Z,101505.75
2022-10-06T01:50:55.499Z,101513.94
2022-10-06T01:53:22.743Z,101514.22
2022-10-06T01:55:49.164Z,101515.59
2022-10-06T01:58:20.184Z,101524.59
2022-10-06T02:00:47.746Z,101536.31
2022-10-06T02:03:14.618Z,101529.50
2022-10-06T02:05:41.722Z,101542.63
2022-10-06T02:08:09.731Z,101545.63
2022-10-06T02:10:36.620Z,101545.88
2022-10-06T02:13:07.342Z,101540.41
2022-10-06T02:15:35.505Z,101553.78
2022-10-06T02:18:04.231Z,101561.66
2022-10-06T02:20:30.751Z,101567.91
2022-10-06T02:22:57.319Z,101577.22
2022-10-06T02:25:23.761Z,101575.81
2022-10-06T02:27:51.344Z,101587.81
2022-10-06T02:30:17.842Z,101579.91
2022-10-06T02:32:46.101Z,101587.84
2022-10-06T02:35:13.154Z,101591.66
2022-10-06T02:37:41.586Z,101601.19
2022-10-06T02:40:10.691Z,101611.25
2022-10-06T02:42:38.159Z,101616.19
2022-10-06T02:45:06.915Z,101620.28
2022-10-06T02:47:35.208Z,101623.53
2022-10-06T02:50:05.416Z,101634.25
2022-10-06T02:52:42.614Z,101630.69
2022-10-06T02:55:10.430Z,101637.75
2022-10-06T02:57:37.094Z,101646.69
2022-10-06T03:00:07.520Z,101658.16
2022-10-06T03:02:34.602Z,101659.56
2022-10-06T03:05:01.972Z,101661.25
2022-10-06T03:07:29.207Z,101671.63
2022-10-06T03:09:56.583Z,101671.59
2022-10-06T03:12:24.886Z,101675.94
2022-10-06T03:14:52.002Z,101677.00
2022-10-06T03:17:19.413Z,101680.03
2022-10-06T03:19:51.327Z,101681.34
2022-10-06T03:22:18.506Z,101681.09
2022-10-06T03:24:50.563Z,101686.28
2022-10-06T03:27:17.014Z,101692.28
2022-10-06T03:29:43.481Z,101704.59
2022-10-06T03:32:10.002Z,101708.34
2022-10-06T03:34:37.615Z,101697.44
2022-10-06T03:37:07.621Z,101704.25
2022-10-06T03:39:34.221Z,101704.25
2022-10-06T03:42:01.421Z,101713.56
2022-10-06T03:44:33.267Z,101716.03
2022-10-06T03:46:59.819Z,101715.13
2022-10-06T03:49:26.770Z,101722.22
2022-10-06T03:51:53.762Z,101717.56
2022-10-06T03:54:26.636Z,101730.13
2022-10-06T03:56:53.507Z,101722.25
2022-10-06T03:59:20.183Z,101730.22
2022-10-06T04:01:48.946Z,101729.94
2022-10-06T04:04:26.650Z,101740.06
2022-10-06T04:06:58.389Z,101742.81
2022-10-06T04:09:26.481Z,101741.47
2022-10-06T04:11:52.938Z,101748.84
2022-10-06T04:14:20.373Z,101761.16
2022-10-06T04:16:50.427Z,101756.22
2022-10-06T04:19:22.279Z,101765.22
2022-10-06T04:21:51.630Z,101778.63
2022-10-06T04:24:22.417Z,101777.53
2022-10-06T04:26:49.959Z,101774.81
2022-10-06T04:29:18.119Z,101793.09
2022-10-06T04:31:48.243Z,101791.72
2022-10-06T04:34:32.369Z,101796.63
2022-10-06T04:36:58.913Z,101809.63
2022-10-06T04:39:33.455Z,101799.59
2022-10-06T04:42:00.716Z,101803.88
2022-10-06T04:44:30.387Z,101803.34
2022-10-06T04:47:02.995Z,101810.41
2022-10-06T04:49:30.308Z,101813.41
2022-10-06T04:51:56.794Z,101827.28
2022-10-06T04:54:25.016Z,101824.28
2022-10-06T04:56:58.153Z,101833.84
2022-10-06T04:59:46.523Z,101839.72
2022-10-06T05:02:15.719Z,101855.50
2022-10-06T05:04:43.560Z,101862.06
2022-10-06T05:07:10.562Z,101866.19
2022-10-06T05:09:37.137Z,101858.50
2022-10-06T05:12:03.967Z,101870.72
2022-10-06T05:14:37.109Z,101878.28
2022-10-06T05:17:04.316Z,101887.31
2022-10-06T05:19:32.306Z,101885.91
2022-10-06T05:21:58.905Z,101895.81
2022-10-06T05:24:29.383Z,101892.56
2022-10-06T05:27:00.839Z,101903.38
2022-10-06T05:29:28.887Z,101910.75
2022-10-06T05:31:55.609Z,101912.38
2022-10-06T05:34:22.603Z,101915.31
2022-10-06T05:36:49.085Z,101915.34
2022-10-06T05:39:15.585Z,101929.56
2022-10-06T05:41:49.077Z,101936.34
2022-10-06T05:44:15.663Z,101928.63
2022-10-06T05:46:43.681Z,101940.03
2022-10-06T05:49:11.426Z,101939.53
2022-10-06T05:51:41.890Z,101944.28
2022-10-06T05:54:14.410Z,101951.72
2022-10-06T05:56:41.247Z,101957.91
2022-10-06T05:59:07.801Z,101971.78
2022-10-06T06:01:40.161Z,101973.09
2022-10-06T06:04:13.914Z,101982.06
2022-10-06T06:06:46.645Z,101986.03
2022-10-06T06:09:21.724Z,101986.38
2022-10-06T06:11:52.898Z,101989.34
2022-10-06T06:14:45.429Z,101998.41
2022-10-06T06:17:19.675Z,102002.66
2022-10-06T06:19:46.428Z,102005.31
2022-10-06T06:22:13.186Z,102023.31
2022-10-06T06:24:42.486Z,102023.56
2022-10-06T06:27:10.140Z,102029.41
2022-10-06T06:29:37.506Z,102032.88
2022-10-06T06:32:10.698Z,102035.22
2022-10-06T06:34:37.338Z,102055.81
2022-10-06T06:37:08.425Z,102058.09
2022-10-06T06:39:37.211Z,102062.97
2022-10-06T06:42:08.419Z,102061.59
2022-10-06T06:44:55.384Z,102062.66
2022-10-06T06:47:30.456Z,102073.19
2022-10-06T06:50:00.112Z,102084.72
2022-10-06T06:52:31.256Z,102088.91
2022-10-06T06:54:59.406Z,102088.72
2022-10-06T06:57:27.732Z,102099.72
2022-10-06T06:59:56.982Z,102103.09
2022-10-06T07:02:26.453Z,102112.28
2022-10-06T07:04:52.999Z,102112.75
2022-10-06T07:07:20.912Z,102116.66
2022-10-06T07:09:47.571Z,102117.47
2022-10-06T07:12:15.660Z,102114.50
2022-10-06T07:15:05.757Z,102125.09
2022-10-06T07:17:56.581Z,102130.53
2022-10-06T07:20:42.042Z,102136.56
2022-10-06T07:23:35.635Z,102132.50
2022-10-06T07:26:04.345Z,102143.25
2022-10-06T07:28:30.915Z,102146.59
2022-10-06T07:31:00.591Z,102148.00
2022-10-06T07:33:32.041Z,102153.03
2022-10-06T07:36:00.520Z,102154.72
2022-10-06T07:38:29.709Z,102176.03
2022-10-06T07:41:18.505Z,102169.53
2022-10-06T07:43:47.242Z,102169.41
2022-10-06T07:46:15.401Z,102172.75
2022-10-06T07:48:48.737Z,102185.06
2022-10-06T07:51:20.066Z,102179.00
2022-10-06T07:53:50.812Z,102182.47
2022-10-06T07:56:30.034Z,102185.44
2022-10-06T07:58:58.566Z,102190.47
2022-10-06T08:01:27.588Z,102194.66
2022-10-06T08:03:54.134Z,102204.28
2022-10-06T08:06:20.713Z,102200.75
2022-10-06T08:08:52.483Z,102206.34
2022-10-06T08:11:20.685Z,102216.50
2022-10-06T08:13:48.297Z,102213.56
2022-10-06T08:16:17.982Z,102220.31
2022-10-06T08:18:53.291Z,102222.13
2022-10-06T08:21:31.631Z,102225.72
2022-10-06T08:23:59.426Z,102231.50
2022-10-06T08:26:27.744Z,102231.03
2022-10-06T08:29:00.330Z,102241.50
2022-10-06T08:31:27.841Z,102246.63
2022-10-06T08:33:56.697Z,102251.81
2022-10-06T08:36:31.056Z,102254.59
2022-10-06T08:39:27.867Z,102252.44
2022-10-06T08:41:55.813Z,102260.13
2022-10-06T08:44:40.859Z,102259.88
2022-10-06T08:47:17.654Z,102265.63
2022-10-06T08:49:47.154Z,102270.72
2022-10-06T08:52:46.139Z,102268.81
2022-10-06T08:55:28.699Z,102279.06
2022-10-06T08:57:58.393Z,102275.22
2022-10-06T09:00:25.411Z,102289.44
2022-10-06T09:02:52.037Z,102275.78
2022-10-06T09:05:26.541Z,102281.53
2022-10-06T09:08:05.578Z,102290.63
2022-10-06T09:11:03.382Z,102285.34
2022-10-06T09:13:42.167Z,102283.78
2022-10-06T09:16:13.757Z,102298.66
2022-10-06T09:19:07.171Z,102305.03
2022-10-06T09:21:41.912Z,102303.47
2022-10-06T09:24:15.321Z,102300.47
2022-10-06T09:26:44.975Z,102299.28
2022-10-06T09:29:12.627Z,102311.75
2022-10-06T09:31:42.776Z,102313.97
2022-10-06T09:34:24.891Z,102316.47
2022-10-06T09:37:05.103Z,102319.44
2022-10-06T09:39:37.543Z,102318.94
2022-10-06T09:42:21.027Z,102322.88
2022-10-06T09:44:51.193Z,102323.19
2022-10-06T09:47:40.760Z,102329.56
2022-10-06T09:50:16.304Z,102339.44
2022-10-06T09:52:58.267Z,102339.09
2022-10-06T09:55:28.758Z,102341.94
2022-10-06T09:57:57.566Z,102336.00
2022-10-06T10:00:36.880Z,102345.66
2022-10-06T10:03:11.640Z,102347.91
2022-10-06T10:05:46.228Z,102353.69
2022-10-06T10:08:12.691Z,102354.91
2022-10-06T10:10:40.125Z,102358.81
2022-10-06T10:13:25.350Z,102362.38
2022-10-06T10:15:56.462Z,102363.13
2022-10-06T10:18:27.620Z,102363.91
2022-10-06T10:21:06.272Z,102369.44
2022-10-06T10:23:55.218Z,102366.72
2022-10-06T10:26:30.821Z,102366.47
2022-10-06T10:29:10.921Z,102362.94
2022-10-06T10:32:12.214Z,102367.34
2022-10-06T10:34:50.907Z,102362.94
2022-10-06T10:37:25.706Z,102364.34
2022-10-06T10:40:00.633Z,102354.22
2022-10-06T10:42:37.341Z,102362.44
2022-10-06T10:45:11.923Z,102365.19
2022-10-06T10:47:41.722Z,102369.28
2022-10-06T10:50:24.571Z,102362.47
2022-10-06T10:52:56.558Z,102368.03
2022-10-06T10:55:39.678Z,102370.78
2022-10-06T10:58:35.308Z,102372.09
2022-10-06T11:01:42.115Z,102386.28
2022-10-06T11:04:13.825Z,102387.03
2022-10-06T11:07:02.022Z,102385.31
2022-10-06T11:09:36.033Z,102390.22
2022-10-06T11:12:17.043Z,102384.66
2022-10-06T11:15:20.947Z,102394.44
2022-10-06T11:17:50.410Z,102402.06
2022-10-06T11:20:51.958Z,102398.00
2022-10-06T11:23:30.384Z,102399.53
2022-10-06T11:26:26.294Z,102402.66
2022-10-06T11:29:19.323Z,102396.47
2022-10-06T11:32:10.158Z,102406.69
2022-10-06T11:34:37.227Z,102415.94
2022-10-06T11:37:33.460Z,102406.31
2022-10-06T11:40:28.055Z,102406.63
2022-10-06T11:43:06.187Z,102400.38
2022-10-06T11:46:02.826Z,102409.16
2022-10-06T11:48:31.367Z,102410.13
2022-10-06T11:51:17.160Z,102401.50
2022-10-06T11:53:44.807Z,102395.41
2022-10-06T11:56:17.457Z,102388.03
2022-10-06T11:58:56.330Z,102394.69
2022-10-06T12:01:32.766Z,102396.69
2022-10-06T12:04:08.673Z,102396.19
2022-10-06T12:06:47.397Z,102399.41
2022-10-06T12:09:26.291Z,102403.03
2022-10-06T12:11:54.797Z,102388.25
2022-10-06T12:17:26.415Z,102381.47
2022-10-06T12:20:11.107Z,102383.97
2022-10-06T12:22:52.358Z,102373.53
2022-10-06T12:25:58.787Z,102373.25
2022-10-06T12:28:53.012Z,102379.31
2022-10-06T12:31:44.781Z,102391.94
2022-10-06T12:34:39.385Z,102387.53
2022-10-06T12:37:42.992Z,102389.75
2022-10-06T12:40:40.708Z,102386.69
2022-10-06T12:43:19.050Z,102386.69
2022-10-06T12:45:59.976Z,102383.66
2022-10-06T12:48:41.346Z,102380.34
2022-10-06T12:51:07.916Z,102383.09
2022-10-06T12:53:45.473Z,102384.47
2022-10-06T12:56:42.501Z,102375.97
2022-10-06T12:59:32.229Z,102380.59
2022-10-06T13:02:01.219Z,102377.31
2022-10-06T13:04:36.932Z,102382.25
2022-10-06T13:07:19.827Z,102377.06
2022-10-06T13:09:49.966Z,102380.94
2022-10-06T13:12:32.086Z,102379.78
2022-10-06T13:15:24.396Z,102380.38
2022-10-06T13:17:56.884Z,102381.47
2022-10-06T13:20:49.206Z,102375.97
2022-10-06T13:23:33.484Z,102379.50
2022-10-06T13:26:04.298Z,102385.81
2022-10-06T13:28:37.011Z,102380.63
2022-10-06T13:31:18.386Z,102373.47
2022-10-06T13:33:46.947Z,102375.59
2022-10-06T13:36:13.834Z,102373.44
2022-10-06T13:38:41.955Z,102383.84
2022-10-06T13:41:11.370Z,102376.75
2022-10-06T13:43:42.273Z,102385.00
2022-10-06T13:46:12.640Z,102386.63
2022-10-06T13:48:49.718Z,102381.19
2022-10-06T13:51:26.214Z,102392.44
2022-10-06T13:53:53.010Z,102387.22
2022-10-06T13:56:38.584Z,102393.25
2022-10-06T13:59:30.936Z,102390.78
2022-10-06T14:02:18.951Z,102391.63
2022-10-06T14:05:26.381Z,102394.09
2022-10-06T14:07:59.566Z,102386.97
2022-10-06T14:10:31.839Z,102386.41
2022-10-06T14:13:01.319Z,102387.50
2022-10-06T14:15:45.267Z,102383.66
2022-10-06T14:18:33.610Z,102386.94
2022-10-06T14:21:17.332Z,102380.06
2022-10-06T14:23:54.068Z,102386.66
2022-10-06T14:26:29.743Z,102388.31
2022-10-06T14:28:57.088Z,102381.72
2022-10-06T14:31:25.991Z,102380.63
2022-10-06T14:33:54.492Z,102385.00
2022-10-06T14:36:29.318Z,102383.09
2022-10-06T14:38:58.059Z,102387.22
2022-10-06T14:41:27.949Z,102390.25
2022-10-06T14:43:56.370Z,102387.81
2022-10-06T14:46:25.246Z,102394.09
2022-10-06T14:48:52.179Z,102394.09
2022-10-06T14:51:19.666Z,102390.25
2022-10-06T14:53:53.958Z,102392.47
2022-10-06T14:56:23.001Z,102380.13
2022-10-06T14:58:50.254Z,102382.31
2022-10-06T15:01:19.271Z,102388.88
2022-10-06T15:03:56.919Z,102376.81
2022-10-06T15:06:42.539Z,102383.13
2022-10-06T15:09:09.345Z,102381.22
2022-10-06T15:11:36.967Z,102383.69
2022-10-06T15:14:04.492Z,102370.25
2022-10-06T15:16:32.987Z,102383.97
2022-10-06T15:19:00.573Z,102375.75
2022-10-06T15:21:27.696Z,102374.09
2022-10-06T15:24:02.831Z,102383.69
2022-10-06T15:26:49.213Z,102387.53
2022-10-06T15:29:16.275Z,102388.06
2022-10-06T15:31:45.034Z,102388.06
2022-10-06T15:34:14.064Z,102389.47
2022-10-06T15:36:42.459Z,102385.03
2022-10-06T15:39:11.091Z,102385.88
2022-10-06T15:41:39.768Z,102392.75
2022-10-06T15:44:08.510Z,102382.31
2022-10-06T15:46:47.231Z,102380.63
2022-10-06T15:49:16.181Z,102390.25
2022-10-06T15:51:48.687Z,102382.78
2022-10-06T15:54:26.296Z,102379.75
2022-10-06T15:56:54.895Z,102400.84
2022-10-06T15:59:25.542Z,102398.91
2022-10-06T16:01:56.669Z,102398.88
2022-10-06T16:04:35.409Z,102389.84
2022-10-06T16:07:06.102Z,102399.94
2022-10-06T16:09:39.296Z,102397.72
2022-10-06T16:12:11.196Z,102400.72
2022-10-06T16:14:38.273Z,102399.03
2022-10-06T16:17:06.484Z,102397.34
2022-10-06T16:19:33.579Z,102394.25
2022-10-06T16:22:00.876Z,102407.63
2022-10-06T16:24:28.887Z,102405.41
2022-10-06T16:26:57.818Z,102406.50
2022-10-06T16:29:24.553Z,102404.47
2022-10-06T16:31:51.123Z,102407.13
2022-10-06T16:34:18.749Z,102403.00
2022-10-06T16:36:45.826Z,102400.75
2022-10-06T16:39:15.059Z,102405.28
2022-10-06T16:41:42.119Z,102398.97
2022-10-06T16:44:08.967Z,102396.19
2022-10-06T16:46:35.832Z,102410.59
2022-10-06T16:49:03.573Z,102399.31
2022-10-06T16:51:32.774Z,102401.09
2022-10-06T16:54:04.650Z,102408.94
2022-10-06T16:56:42.428Z,102412.13
2022-10-06T16:59:15.266Z,102417.81
2022-10-06T17:01:42.646Z,102419.72
2022-10-06T17:04:17.904Z,102416.44
2022-10-06T17:06:57.269Z,102423.72
2022-10-06T17:09:26.172Z,102423.91
2022-10-06T17:11:54.012Z,102426.84
2022-10-06T17:14:21.540Z,102425.72
2022-10-06T17:16:50.727Z,102432.44
2022-10-06T17:19:19.024Z,102425.00
2022-10-06T17:21:48.050Z,102423.00
2022-10-06T17:24:20.155Z,102423.75
2022-10-06T17:26:49.206Z,102421.41
2022-10-06T17:29:18.965Z,102423.50
2022-10-06T17:31:46.655Z,102425.56
2022-10-06T17:34:20.055Z,102427.47
2022-10-06T17:36:50.600Z,102435.84
2022-10-06T17:39:20.384Z,102430.06
2022-10-06T17:41:48.102Z,102429.97
2022-10-06T17:44:21.170Z,102438.91
2022-10-06T17:46:49.625Z,102439.16
2022-10-06T17:49:20.470Z,102442.38
2022-10-06T17:51:47.846Z,102434.03
2022-10-06T17:54:18.036Z,102428.97
2022-10-06T17:56:45.970Z,102435.94
2022-10-06T17:59:19.987Z,102425.19
2022-10-06T18:01:46.622Z,102431.47
2022-10-06T18:04:16.104Z,102436.91
2022-10-06T18:06:44.366Z,102436.34
2022-10-06T18:09:11.767Z,102441.81
2022-10-06T18:11:39.807Z,102440.63
2022-10-06T18:14:16.368Z,102441.25
2022-10-06T18:16:45.136Z,102434.09
2022-10-06T18:19:21.179Z,102437.13
2022-10-06T18:21:48.244Z,102437.59
2022-10-06T18:24:21.008Z,102432.06
2022-10-06T18:26:52.919Z,102428.88
2022-10-06T18:29:21.942Z,102430.97
2022-10-06T18:31:49.926Z,102433.47
2022-10-06T18:37:04.444Z,102433.28
2022-10-06T18:39:32.055Z,102429.03
2022-10-06T18:42:02.472Z,102443.97
2022-10-06T18:44:48.535Z,102433.56
2022-10-06T18:47:33.547Z,102444.44
2022-10-06T18:50:00.046Z,102442.53
2022-10-06T18:52:26.737Z,102431.88
2022-10-06T18:54:53.166Z,102445.53
2022-10-06T18:57:22.661Z,102448.41
2022-10-06T18:59:51.685Z,102438.00
2022-10-06T19:02:18.214Z,102450.09
2022-10-06T19:04:44.819Z,102445.13
2022-10-06T19:07:11.279Z,102438.50
2022-10-06T19:09:39.705Z,102449.88
2022-10-06T19:12:07.971Z,102447.28
2022-10-06T19:14:37.716Z,102453.66
2022-10-06T19:17:14.743Z,102457.69
2022-10-06T19:19:51.015Z,102453.31
2022-10-06T19:22:19.148Z,102454.97
2022-10-06T19:24:47.789Z,102456.72
2022-10-06T19:27:17.036Z,102457.19
2022-10-06T19:29:46.091Z,102449.38
2022-10-06T19:32:20.652Z,102451.38
2022-10-06T19:34:48.313Z,102443.69
2022-10-06T19:37:15.801Z,102445.25
2022-10-06T19:39:45.800Z,102446.06
2022-10-06T19:42:35.346Z,102439.56
2022-10-06T19:45:02.433Z,102450.91
2022-10-06T19:47:28.902Z,102447.84
2022-10-06T19:50:00.808Z,102446.72
2022-10-06T19:52:31.203Z,102444.00
2022-10-06T19:54:58.059Z,102450.56
2022-10-06T19:57:28.414Z,102444.50
2022-10-06T19:59:55.053Z,102445.59
2022-10-06T20:02:21.627Z,102438.50
2022-10-06T20:04:48.149Z,102440.88
2022-10-06T20:07:14.592Z,102443.69
2022-10-06T20:09:41.065Z,102446.50
2022-10-06T20:12:07.567Z,102447.44
2022-10-06T20:14:34.400Z,102450.69
2022-10-06T20:17:02.678Z,102451.03
2022-10-06T20:19:29.514Z,102454.13
2022-10-06T20:21:55.970Z,102455.41
2022-10-06T20:24:24.826Z,102454.81
2022-10-06T20:26:53.158Z,102456.38
2022-10-06T20:29:23.726Z,102448.16
2022-10-06T20:31:53.819Z,102442.59
2022-10-06T20:34:23.881Z,102455.34
2022-10-06T20:36:55.530Z,102450.50
2022-10-06T20:39:41.731Z,102457.31
2022-10-06T20:42:13.951Z,102453.06
2022-10-06T20:44:42.212Z,102449.38
2022-10-06T20:47:10.171Z,102449.47
2022-10-06T20:49:37.079Z,102448.16
2022-10-06T20:52:05.171Z,102454.06
2022-10-06T20:54:34.887Z,102447.44
2022-10-06T20:57:04.898Z,102452.56
2022-10-06T20:59:33.310Z,102445.47
2022-10-06T21:02:00.262Z,102444.44
2022-10-06T21:04:31.079Z,102444.28
2022-10-06T21:06:58.043Z,102439.53
2022-10-06T21:09:25.280Z,102440.13
2022-10-06T21:11:52.410Z,102435.53
2022-10-06T21:14:19.225Z,102436.13
2022-10-06T21:16:47.903Z,102438.41
2022-10-06T21:19:17.224Z,102434.59
2022-10-06T21:21:50.770Z,102439.66
2022-10-06T21:24:18.268Z,102437.88
2022-10-06T21:26:45.029Z,102436.06
2022-10-06T21:29:14.244Z,102435.06
2022-10-06T21:31:41.594Z,102435.34
2022-10-06T21:34:08.494Z,102436.16
2022-10-06T21:36:35.362Z,102432.84
2022-10-06T21:39:04.698Z,102435.41
2022-10-06T21:41:39.258Z,102433.97
2022-10-06T21:44:07.336Z,102432.28
2022-10-06T21:46:40.002Z,102431.47
2022-10-06T21:49:10.558Z,102431.84
2022-10-06T21:51:38.264Z,102427.00
2022-10-06T21:54:05.585Z,102431.16
2022-10-06T21:56:34.218Z,102441.22
2022-10-06T21:59:01.236Z,102432.00
2022-10-06T22:01:30.661Z,102429.72
2022-10-06T22:03:58.883Z,102431.69
2022-10-06T22:06:27.606Z,102438.28
2022-10-06T22:08:56.068Z,102426.78
2022-10-06T22:11:32.274Z,102427.00
2022-10-06T22:14:29.865Z,102425.81
2022-10-06T22:16:56.572Z,102427.38
2022-10-06T22:19:23.275Z,102420.75
2022-10-06T22:21:50.035Z,102424.50
2022-10-06T22:24:21.510Z,102420.38
2022-10-06T22:26:49.404Z,102423.16
2022-10-06T22:29:17.924Z,102414.84
2022-10-06T22:31:47.221Z,102421.16
2022-10-06T22:34:17.798Z,102418.44
2022-10-06T22:36:44.541Z,102414.31
2022-10-06T22:39:11.428Z,102409.78
2022-10-06T22:41:38.594Z,102410.81
2022-10-06T22:44:05.542Z,102413.16
2022-10-06T22:46:35.585Z,102409.00
2022-10-06T22:49:04.134Z,102402.75
2022-10-06T22:51:31.046Z,102408.16
2022-10-06T22:53:59.358Z,102388.19
2022-10-06T22:56:28.443Z,102397.81
2022-10-06T22:58:55.551Z,102395.94
2022-10-06T23:01:22.255Z,102387.44
2022-10-06T23:03:49.016Z,102389.50
2022-10-06T23:06:17.750Z,102384.53
2022-10-06T23:08:44.950Z,102379.97
2022-10-06T23:11:20.092Z,102374.25
2022-10-06T23:13:48.483Z,102374.31
2022-10-06T23:16:17.205Z,102367.88
2022-10-06T23:18:45.091Z,102362.91
2022-10-06T23:21:19.038Z,102364.22
2022-10-06T23:23:46.601Z,102357.97
2022-10-06T23:26:15.650Z,102356.72
2022-10-06T23:28:43.075Z,102352.97
2022-10-06T23:31:10.896Z,102353.38
2022-10-06T23:33:38.408Z,102354.84
2022-10-06T23:36:10.725Z,102350.31
2022-10-06T23:38:38.799Z,102348.06
2022-10-06T23:41:06.507Z,102353.25
2022-10-06T23:43:34.367Z,102342.41
2022-10-06T23:46:02.100Z,102349.16
2022-10-06T23:48:29.441Z,102347.28
2022-10-06T23:51:03.096Z,102350.44
2022-10-06T23:53:30.985Z,102350.25
2022-10-06T23:55:58.150Z,102356.75
2022-10-06T23:58:25.445Z,102343.88
